sensor_id;sensor_type;location;lat;lon;timestamp;P1;durP1;ratioP1;P2;durP2;ratioP2
42332;SDS011;27984;51.476;5.702;2023-04-07T00:00:54;78.45;;;31.88;;
42332;SDS011;27984;51.476;5.702;2023-04-07T00:03:19;71.13;;;30.85;;
42332;SDS011;27984;51.476;5.702;2023-04-07T00:05:45;76.68;;;32.15;;
42332;SDS011;27984;51.476;5.702;2023-04-07T00:08:11;61.30;;;29.38;;
42332;SDS011;27984;51.476;5.702;2023-04-07T00:10:37;63.13;;;30.13;;
42332;SDS011;27984;51.476;5.702;2023-04-07T00:13:02;62.95;;;30.10;;
42332;SDS011;27984;51.476;5.702;2023-04-07T00:15:28;67.68;;;30.95;;
42332;SDS011;27984;51.476;5.702;2023-04-07T00:17:54;69.07;;;31.02;;
42332;SDS011;27984;51.476;5.702;2023-04-07T00:20:20;61.22;;;30.48;;
42332;SDS011;27984;51.476;5.702;2023-04-07T00:22:45;62.00;;;29.02;;
42332;SDS011;27984;51.476;5.702;2023-04-07T00:25:11;63.42;;;29.50;;
42332;SDS011;27984;51.476;5.702;2023-04-07T00:27:37;56.15;;;28.40;;
42332;SDS011;27984;51.476;5.702;2023-04-07T00:30:02;58.88;;;29.00;;
42332;SDS011;27984;51.476;5.702;2023-04-07T00:32:28;52.30;;;26.67;;
42332;SDS011;27984;51.476;5.702;2023-04-07T00:34:54;54.13;;;27.20;;
42332;SDS011;27984;51.476;5.702;2023-04-07T00:37:20;54.85;;;26.95;;
42332;SDS011;27984;51.476;5.702;2023-04-07T00:39:45;47.67;;;25.48;;
42332;SDS011;27984;51.476;5.702;2023-04-07T00:42:11;48.33;;;24.08;;
42332;SDS011;27984;51.476;5.702;2023-04-07T00:44:36;44.65;;;23.60;;
42332;SDS011;27984;51.476;5.702;2023-04-07T00:47:02;40.05;;;21.95;;
42332;SDS011;27984;51.476;5.702;2023-04-07T00:49:27;41.90;;;22.65;;
42332;SDS011;27984;51.476;5.702;2023-04-07T00:51:54;38.63;;;21.90;;
42332;SDS011;27984;51.476;5.702;2023-04-07T00:54:22;39.00;;;21.00;;
42332;SDS011;27984;51.476;5.702;2023-04-07T00:56:48;36.88;;;21.00;;
42332;SDS011;27984;51.476;5.702;2023-04-07T00:59:13;46.25;;;22.80;;
42332;SDS011;27984;51.476;5.702;2023-04-07T01:04:47;39.72;;;22.10;;
42332;SDS011;27984;51.476;5.702;2023-04-07T01:10:02;36.55;;;21.88;;
42332;SDS011;27984;51.476;5.702;2023-04-07T01:12:51;44.88;;;24.52;;
42332;SDS011;27984;51.476;5.702;2023-04-07T01:15:27;43.38;;;24.50;;
42332;SDS011;27984;51.476;5.702;2023-04-07T01:17:58;46.75;;;26.38;;
42332;SDS011;27984;51.476;5.702;2023-04-07T01:20:31;45.90;;;26.35;;
42332;SDS011;27984;51.476;5.702;2023-04-07T01:22:57;44.10;;;24.85;;
42332;SDS011;27984;51.476;5.702;2023-04-07T01:31:04;36.42;;;20.08;;
42332;SDS011;27984;51.476;5.702;2023-04-07T01:33:31;37.65;;;20.80;;
42332;SDS011;27984;51.476;5.702;2023-04-07T01:35:58;31.45;;;18.90;;
42332;SDS011;27984;51.476;5.702;2023-04-07T01:38:25;30.05;;;18.63;;
42332;SDS011;27984;51.476;5.702;2023-04-07T01:40:52;29.38;;;17.55;;
42332;SDS011;27984;51.476;5.702;2023-04-07T01:43:20;26.80;;;16.95;;
42332;SDS011;27984;51.476;5.702;2023-04-07T01:45:47;31.88;;;16.13;;
42332;SDS011;27984;51.476;5.702;2023-04-07T01:48:13;27.10;;;16.27;;
42332;SDS011;27984;51.476;5.702;2023-04-07T01:50:39;26.60;;;16.40;;
42332;SDS011;27984;51.476;5.702;2023-04-07T01:53:06;24.25;;;15.57;;
42332;SDS011;27984;51.476;5.702;2023-04-07T01:55:32;30.35;;;16.85;;
42332;SDS011;27984;51.476;5.702;2023-04-07T01:58:02;29.58;;;17.20;;
42332;SDS011;27984;51.476;5.702;2023-04-07T02:00:28;30.40;;;17.40;;
42332;SDS011;27984;51.476;5.702;2023-04-07T02:02:56;30.35;;;18.55;;
42332;SDS011;27984;51.476;5.702;2023-04-07T02:05:23;31.70;;;18.40;;
42332;SDS011;27984;51.476;5.702;2023-04-07T02:08:00;28.60;;;17.23;;
42332;SDS011;27984;51.476;5.702;2023-04-07T02:10:29;30.73;;;17.73;;
42332;SDS011;27984;51.476;5.702;2023-04-07T02:12:59;31.35;;;18.10;;
42332;SDS011;27984;51.476;5.702;2023-04-07T02:15:27;30.95;;;17.63;;
42332;SDS011;27984;51.476;5.702;2023-04-07T02:17:56;33.33;;;16.98;;
42332;SDS011;27984;51.476;5.702;2023-04-07T02:20:23;28.92;;;15.98;;
42332;SDS011;27984;51.476;5.702;2023-04-07T02:22:48;24.98;;;15.15;;
42332;SDS011;27984;51.476;5.702;2023-04-07T02:27:53;24.63;;;15.82;;
42332;SDS011;27984;51.476;5.702;2023-04-07T02:30:20;24.65;;;15.85;;
42332;SDS011;27984;51.476;5.702;2023-04-07T02:32:46;22.17;;;14.85;;
42332;SDS011;27984;51.476;5.702;2023-04-07T02:35:11;24.75;;;14.27;;
42332;SDS011;27984;51.476;5.702;2023-04-07T02:37:37;22.40;;;13.95;;
42332;SDS011;27984;51.476;5.702;2023-04-07T02:40:04;19.23;;;12.32;;
42332;SDS011;27984;51.476;5.702;2023-04-07T02:42:30;21.65;;;11.15;;
42332;SDS011;27984;51.476;5.702;2023-04-07T02:44:55;17.00;;;9.63;;
42332;SDS011;27984;51.476;5.702;2023-04-07T02:47:21;17.95;;;9.70;;
42332;SDS011;27984;51.476;5.702;2023-04-07T02:49:46;16.55;;;9.27;;
42332;SDS011;27984;51.476;5.702;2023-04-07T02:52:12;14.30;;;9.45;;
42332;SDS011;27984;51.476;5.702;2023-04-07T02:54:37;16.02;;;9.55;;
42332;SDS011;27984;51.476;5.702;2023-04-07T02:57:03;17.45;;;9.85;;
42332;SDS011;27984;51.476;5.702;2023-04-07T02:59:28;16.65;;;9.38;;
42332;SDS011;27984;51.476;5.702;2023-04-07T03:01:54;14.52;;;8.73;;
42332;SDS011;27984;51.476;5.702;2023-04-07T03:04:20;14.98;;;8.30;;
42332;SDS011;27984;51.476;5.702;2023-04-07T03:06:46;16.95;;;8.43;;
42332;SDS011;27984;51.476;5.702;2023-04-07T03:09:11;12.27;;;8.55;;
42332;SDS011;27984;51.476;5.702;2023-04-07T03:11:37;13.70;;;8.52;;
42332;SDS011;27984;51.476;5.702;2023-04-07T03:14:02;15.85;;;8.00;;
42332;SDS011;27984;51.476;5.702;2023-04-07T03:16:28;17.90;;;8.57;;
42332;SDS011;27984;51.476;5.702;2023-04-07T03:18:54;20.63;;;8.68;;
42332;SDS011;27984;51.476;5.702;2023-04-07T03:21:20;14.07;;;9.00;;
42332;SDS011;27984;51.476;5.702;2023-04-07T03:23:46;15.63;;;8.93;;
42332;SDS011;27984;51.476;5.702;2023-04-07T03:26:11;18.35;;;8.93;;
42332;SDS011;27984;51.476;5.702;2023-04-07T03:28:37;20.30;;;9.23;;
42332;SDS011;27984;51.476;5.702;2023-04-07T03:31:02;12.57;;;8.80;;
42332;SDS011;27984;51.476;5.702;2023-04-07T03:33:28;17.83;;;9.05;;
42332;SDS011;27984;51.476;5.702;2023-04-07T03:35:53;15.55;;;8.75;;
42332;SDS011;27984;51.476;5.702;2023-04-07T03:38:19;14.68;;;8.35;;
42332;SDS011;27984;51.476;5.702;2023-04-07T03:40:45;15.05;;;8.05;;
42332;SDS011;27984;51.476;5.702;2023-04-07T03:43:11;12.95;;;7.70;;
42332;SDS011;27984;51.476;5.702;2023-04-07T03:45:39;15.80;;;8.65;;
42332;SDS011;27984;51.476;5.702;2023-04-07T03:48:05;17.10;;;8.30;;
42332;SDS011;27984;51.476;5.702;2023-04-07T03:50:34;20.25;;;9.90;;
42332;SDS011;27984;51.476;5.702;2023-04-07T03:53:00;16.98;;;7.97;;
42332;SDS011;27984;51.476;5.702;2023-04-07T03:55:25;19.40;;;8.95;;
42332;SDS011;27984;51.476;5.702;2023-04-07T03:57:51;17.30;;;9.25;;
42332;SDS011;27984;51.476;5.702;2023-04-07T04:00:17;13.35;;;8.18;;
42332;SDS011;27984;51.476;5.702;2023-04-07T04:02:42;15.52;;;9.07;;
42332;SDS011;27984;51.476;5.702;2023-04-07T04:05:08;13.68;;;8.48;;
42332;SDS011;27984;51.476;5.702;2023-04-07T04:07:34;15.35;;;8.57;;
42332;SDS011;27984;51.476;5.702;2023-04-07T04:10:00;19.42;;;8.68;;
42332;SDS011;27984;51.476;5.702;2023-04-07T04:12:25;17.05;;;8.80;;
42332;SDS011;27984;51.476;5.702;2023-04-07T04:14:51;18.27;;;8.88;;
42332;SDS011;27984;51.476;5.702;2023-04-07T04:17:17;16.45;;;9.05;;
42332;SDS011;27984;51.476;5.702;2023-04-07T04:19:42;15.50;;;8.15;;
42332;SDS011;27984;51.476;5.702;2023-04-07T04:22:07;19.30;;;9.02;;
42332;SDS011;27984;51.476;5.702;2023-04-07T04:24:33;16.10;;;9.13;;
42332;SDS011;27984;51.476;5.702;2023-04-07T04:26:59;17.70;;;8.95;;
42332;SDS011;27984;51.476;5.702;2023-04-07T04:29:25;18.85;;;8.77;;
42332;SDS011;27984;51.476;5.702;2023-04-07T04:31:51;15.40;;;8.73;;
42332;SDS011;27984;51.476;5.702;2023-04-07T04:34:16;17.48;;;8.93;;
42332;SDS011;27984;51.476;5.702;2023-04-07T04:36:42;20.00;;;8.77;;
42332;SDS011;27984;51.476;5.702;2023-04-07T04:39:08;20.98;;;8.98;;
42332;SDS011;27984;51.476;5.702;2023-04-07T04:41:33;19.58;;;9.85;;
42332;SDS011;27984;51.476;5.702;2023-04-07T04:43:59;21.08;;;10.45;;
42332;SDS011;27984;51.476;5.702;2023-04-07T04:46:24;28.83;;;9.98;;
42332;SDS011;27984;51.476;5.702;2023-04-07T04:48:50;23.02;;;10.07;;
42332;SDS011;27984;51.476;5.702;2023-04-07T04:51:16;19.50;;;9.38;;
42332;SDS011;27984;51.476;5.702;2023-04-07T04:53:42;24.83;;;10.38;;
42332;SDS011;27984;51.476;5.702;2023-04-07T04:56:07;20.17;;;10.65;;
42332;SDS011;27984;51.476;5.702;2023-04-07T04:58:33;27.23;;;11.57;;
42332;SDS011;27984;51.476;5.702;2023-04-07T05:00:59;28.58;;;11.88;;
42332;SDS011;27984;51.476;5.702;2023-04-07T05:03:26;25.77;;;12.00;;
42332;SDS011;27984;51.476;5.702;2023-04-07T05:05:52;30.40;;;13.18;;
42332;SDS011;27984;51.476;5.702;2023-04-07T05:08:17;24.85;;;13.10;;
42332;SDS011;27984;51.476;5.702;2023-04-07T05:10:43;30.88;;;14.00;;
42332;SDS011;27984;51.476;5.702;2023-04-07T05:13:10;26.00;;;13.85;;
42332;SDS011;27984;51.476;5.702;2023-04-07T05:15:35;29.60;;;14.07;;
42332;SDS011;27984;51.476;5.702;2023-04-07T05:18:01;27.40;;;14.80;;
42332;SDS011;27984;51.476;5.702;2023-04-07T05:20:26;33.55;;;15.48;;
42332;SDS011;27984;51.476;5.702;2023-04-07T05:22:52;28.65;;;14.90;;
42332;SDS011;27984;51.476;5.702;2023-04-07T05:25:17;33.42;;;15.70;;
42332;SDS011;27984;51.476;5.702;2023-04-07T05:27:43;31.13;;;15.18;;
42332;SDS011;27984;51.476;5.702;2023-04-07T05:30:08;32.08;;;14.90;;
42332;SDS011;27984;51.476;5.702;2023-04-07T05:32:34;32.65;;;15.80;;
42332;SDS011;27984;51.476;5.702;2023-04-07T05:35:00;29.17;;;15.25;;
42332;SDS011;27984;51.476;5.702;2023-04-07T05:37:26;35.00;;;15.38;;
42332;SDS011;27984;51.476;5.702;2023-04-07T05:39:51;35.42;;;15.60;;
42332;SDS011;27984;51.476;5.702;2023-04-07T05:42:17;31.85;;;15.18;;
42332;SDS011;27984;51.476;5.702;2023-04-07T05:44:42;31.23;;;14.57;;
42332;SDS011;27984;51.476;5.702;2023-04-07T05:47:08;30.75;;;14.40;;
42332;SDS011;27984;51.476;5.702;2023-04-07T05:49:35;30.80;;;14.35;;
42332;SDS011;27984;51.476;5.702;2023-04-07T05:52:00;31.67;;;14.48;;
42332;SDS011;27984;51.476;5.702;2023-04-07T05:54:27;30.80;;;13.55;;
42332;SDS011;27984;51.476;5.702;2023-04-07T05:56:53;32.05;;;14.45;;
42332;SDS011;27984;51.476;5.702;2023-04-07T05:59:18;34.25;;;13.48;;
42332;SDS011;27984;51.476;5.702;2023-04-07T06:01:44;32.85;;;13.05;;
42332;SDS011;27984;51.476;5.702;2023-04-07T06:04:10;33.92;;;13.98;;
42332;SDS011;27984;51.476;5.702;2023-04-07T06:06:35;29.20;;;13.48;;
42332;SDS011;27984;51.476;5.702;2023-04-07T06:09:02;32.15;;;13.50;;
42332;SDS011;27984;51.476;5.702;2023-04-07T06:11:27;29.90;;;14.57;;
42332;SDS011;27984;51.476;5.702;2023-04-07T06:13:53;29.67;;;13.00;;
42332;SDS011;27984;51.476;5.702;2023-04-07T06:16:18;33.70;;;13.85;;
42332;SDS011;27984;51.476;5.702;2023-04-07T06:18:44;29.60;;;12.45;;
42332;SDS011;27984;51.476;5.702;2023-04-07T06:21:10;34.75;;;13.75;;
42332;SDS011;27984;51.476;5.702;2023-04-07T06:23:35;35.42;;;13.98;;
42332;SDS011;27984;51.476;5.702;2023-04-07T06:26:01;29.45;;;13.35;;
42332;SDS011;27984;51.476;5.702;2023-04-07T06:28:26;29.33;;;13.88;;
42332;SDS011;27984;51.476;5.702;2023-04-07T06:30:52;33.63;;;13.88;;
42332;SDS011;27984;51.476;5.702;2023-04-07T06:33:17;33.05;;;14.13;;
42332;SDS011;27984;51.476;5.702;2023-04-07T06:35:43;30.75;;;13.52;;
42332;SDS011;27984;51.476;5.702;2023-04-07T06:38:09;28.48;;;13.77;;
42332;SDS011;27984;51.476;5.702;2023-04-07T06:40:36;32.42;;;14.25;;
42332;SDS011;27984;51.476;5.702;2023-04-07T06:43:01;26.70;;;13.77;;
42332;SDS011;27984;51.476;5.702;2023-04-07T06:45:28;31.67;;;13.60;;
42332;SDS011;27984;51.476;5.702;2023-04-07T06:47:53;30.45;;;13.85;;
42332;SDS011;27984;51.476;5.702;2023-04-07T06:50:19;31.20;;;13.90;;
42332;SDS011;27984;51.476;5.702;2023-04-07T06:52:46;28.05;;;13.48;;
42332;SDS011;27984;51.476;5.702;2023-04-07T06:55:11;31.23;;;13.90;;
42332;SDS011;27984;51.476;5.702;2023-04-07T06:57:37;29.83;;;14.10;;
42332;SDS011;27984;51.476;5.702;2023-04-07T07:00:03;31.27;;;14.18;;
42332;SDS011;27984;51.476;5.702;2023-04-07T07:02:31;28.90;;;13.40;;
42332;SDS011;27984;51.476;5.702;2023-04-07T07:04:57;28.90;;;13.85;;
42332;SDS011;27984;51.476;5.702;2023-04-07T07:07:23;24.92;;;13.85;;
42332;SDS011;27984;51.476;5.702;2023-04-07T07:09:49;31.60;;;13.85;;
42332;SDS011;27984;51.476;5.702;2023-04-07T07:12:15;30.60;;;13.88;;
42332;SDS011;27984;51.476;5.702;2023-04-07T07:14:42;26.35;;;13.73;;
42332;SDS011;27984;51.476;5.702;2023-04-07T07:17:07;32.30;;;14.48;;
42332;SDS011;27984;51.476;5.702;2023-04-07T07:19:33;27.42;;;13.60;;
42332;SDS011;27984;51.476;5.702;2023-04-07T07:21:59;27.00;;;14.60;;
42332;SDS011;27984;51.476;5.702;2023-04-07T07:24:27;27.50;;;14.45;;
42332;SDS011;27984;51.476;5.702;2023-04-07T07:26:53;27.90;;;13.98;;
42332;SDS011;27984;51.476;5.702;2023-04-07T07:29:20;28.83;;;13.75;;
42332;SDS011;27984;51.476;5.702;2023-04-07T07:31:46;28.00;;;15.05;;
42332;SDS011;27984;51.476;5.702;2023-04-07T07:34:11;32.03;;;14.55;;
42332;SDS011;27984;51.476;5.702;2023-04-07T07:36:37;35.22;;;14.60;;
42332;SDS011;27984;51.476;5.702;2023-04-07T07:39:03;30.75;;;14.82;;
42332;SDS011;27984;51.476;5.702;2023-04-07T07:41:29;27.27;;;14.88;;
42332;SDS011;27984;51.476;5.702;2023-04-07T07:43:55;32.17;;;14.43;;
42332;SDS011;27984;51.476;5.702;2023-04-07T07:46:20;24.40;;;13.80;;
42332;SDS011;27984;51.476;5.702;2023-04-07T07:48:48;26.83;;;13.95;;
42332;SDS011;27984;51.476;5.702;2023-04-07T07:51:13;29.15;;;13.70;;
42332;SDS011;27984;51.476;5.702;2023-04-07T07:53:39;27.00;;;13.98;;
42332;SDS011;27984;51.476;5.702;2023-04-07T07:56:05;24.92;;;13.25;;
42332;SDS011;27984;51.476;5.702;2023-04-07T07:58:30;24.00;;;13.95;;
42332;SDS011;27984;51.476;5.702;2023-04-07T08:00:56;25.02;;;13.32;;
42332;SDS011;27984;51.476;5.702;2023-04-07T08:03:22;24.60;;;13.68;;
42332;SDS011;27984;51.476;5.702;2023-04-07T08:05:48;29.17;;;14.00;;
42332;SDS011;27984;51.476;5.702;2023-04-07T08:08:14;27.48;;;14.13;;
42332;SDS011;27984;51.476;5.702;2023-04-07T08:10:40;27.67;;;13.75;;
42332;SDS011;27984;51.476;5.702;2023-04-07T08:13:05;26.75;;;13.60;;
42332;SDS011;27984;51.476;5.702;2023-04-07T08:15:31;30.75;;;13.68;;
42332;SDS011;27984;51.476;5.702;2023-04-07T08:17:56;25.92;;;13.77;;
42332;SDS011;27984;51.476;5.702;2023-04-07T08:20:23;25.13;;;13.27;;
42332;SDS011;27984;51.476;5.702;2023-04-07T08:22:50;27.77;;;13.18;;
42332;SDS011;27984;51.476;5.702;2023-04-07T08:25:16;26.52;;;13.65;;
42332;SDS011;27984;51.476;5.702;2023-04-07T08:27:41;29.27;;;14.20;;
42332;SDS011;27984;51.476;5.702;2023-04-07T08:30:07;30.02;;;12.77;;
42332;SDS011;27984;51.476;5.702;2023-04-07T08:32:34;24.95;;;13.43;;
42332;SDS011;27984;51.476;5.702;2023-04-07T08:35:00;22.88;;;12.73;;
42332;SDS011;27984;51.476;5.702;2023-04-07T08:37:26;21.67;;;12.02;;
42332;SDS011;27984;51.476;5.702;2023-04-07T08:39:51;19.55;;;10.57;;
42332;SDS011;27984;51.476;5.702;2023-04-07T08:42:17;21.60;;;9.95;;
42332;SDS011;27984;51.476;5.702;2023-04-07T08:44:43;18.23;;;10.00;;
42332;SDS011;27984;51.476;5.702;2023-04-07T08:47:11;17.52;;;9.93;;
42332;SDS011;27984;51.476;5.702;2023-04-07T08:49:39;16.50;;;9.48;;
42332;SDS011;27984;51.476;5.702;2023-04-07T08:52:43;17.13;;;9.07;;
42332;SDS011;27984;51.476;5.702;2023-04-07T08:55:10;13.43;;;8.30;;
42332;SDS011;27984;51.476;5.702;2023-04-07T08:57:36;18.80;;;7.78;;
42332;SDS011;27984;51.476;5.702;2023-04-07T09:00:02;13.80;;;8.20;;
42332;SDS011;27984;51.476;5.702;2023-04-07T09:02:32;12.18;;;6.53;;
42332;SDS011;27984;51.476;5.702;2023-04-07T09:04:59;10.35;;;5.70;;
42332;SDS011;27984;51.476;5.702;2023-04-07T09:07:27;10.63;;;4.35;;
42332;SDS011;27984;51.476;5.702;2023-04-07T09:09:53;8.20;;;4.28;;
42332;SDS011;27984;51.476;5.702;2023-04-07T09:12:19;15.30;;;5.15;;
42332;SDS011;27984;51.476;5.702;2023-04-07T09:14:45;10.30;;;4.45;;
42332;SDS011;27984;51.476;5.702;2023-04-07T09:17:10;7.63;;;4.10;;
42332;SDS011;27984;51.476;5.702;2023-04-07T09:19:36;11.45;;;4.28;;
42332;SDS011;27984;51.476;5.702;2023-04-07T09:22:01;9.63;;;4.05;;
42332;SDS011;27984;51.476;5.702;2023-04-07T09:24:27;11.15;;;4.70;;
42332;SDS011;27984;51.476;5.702;2023-04-07T09:27:14;9.20;;;4.32;;
42332;SDS011;27984;51.476;5.702;2023-04-07T09:29:43;12.20;;;4.63;;
42332;SDS011;27984;51.476;5.702;2023-04-07T09:32:10;8.88;;;4.63;;
42332;SDS011;27984;51.476;5.702;2023-04-07T09:34:38;10.98;;;4.65;;
42332;SDS011;27984;51.476;5.702;2023-04-07T09:37:05;12.60;;;4.72;;
42332;SDS011;27984;51.476;5.702;2023-04-07T09:39:33;11.02;;;4.97;;
42332;SDS011;27984;51.476;5.702;2023-04-07T09:42:12;11.23;;;4.97;;
42332;SDS011;27984;51.476;5.702;2023-04-07T09:44:38;13.80;;;4.60;;
42332;SDS011;27984;51.476;5.702;2023-04-07T09:47:05;8.88;;;5.00;;
42332;SDS011;27984;51.476;5.702;2023-04-07T09:49:31;12.40;;;4.85;;
42332;SDS011;27984;51.476;5.702;2023-04-07T09:52:00;9.35;;;4.72;;
42332;SDS011;27984;51.476;5.702;2023-04-07T09:54:32;10.57;;;4.30;;
42332;SDS011;27984;51.476;5.702;2023-04-07T09:56:58;12.18;;;4.25;;
42332;SDS011;27984;51.476;5.702;2023-04-07T09:59:25;7.28;;;3.58;;
42332;SDS011;27984;51.476;5.702;2023-04-07T10:01:52;7.85;;;3.90;;
42332;SDS011;27984;51.476;5.702;2023-04-07T10:04:19;7.32;;;3.63;;
42332;SDS011;27984;51.476;5.702;2023-04-07T10:06:45;7.68;;;3.63;;
42332;SDS011;27984;51.476;5.702;2023-04-07T10:09:11;7.57;;;3.40;;
42332;SDS011;27984;51.476;5.702;2023-04-07T10:11:39;6.20;;;3.55;;
42332;SDS011;27984;51.476;5.702;2023-04-07T10:14:06;7.85;;;3.50;;
42332;SDS011;27984;51.476;5.702;2023-04-07T10:16:33;8.45;;;3.70;;
42332;SDS011;27984;51.476;5.702;2023-04-07T10:19:00;7.05;;;3.40;;
42332;SDS011;27984;51.476;5.702;2023-04-07T10:21:26;13.20;;;4.45;;
42332;SDS011;27984;51.476;5.702;2023-04-07T10:23:58;12.35;;;4.03;;
42332;SDS011;27984;51.476;5.702;2023-04-07T10:26:34;10.23;;;3.67;;
42332;SDS011;27984;51.476;5.702;2023-04-07T10:29:03;12.80;;;3.83;;
42332;SDS011;27984;51.476;5.702;2023-04-07T10:31:32;8.77;;;3.20;;
42332;SDS011;27984;51.476;5.702;2023-04-07T10:33:58;8.43;;;3.28;;
42332;SDS011;27984;51.476;5.702;2023-04-07T10:36:23;11.38;;;3.72;;
42332;SDS011;27984;51.476;5.702;2023-04-07T10:39:17;13.35;;;3.67;;
42332;SDS011;27984;51.476;5.702;2023-04-07T10:41:39;10.02;;;3.50;;
42332;SDS011;27984;51.476;5.702;2023-04-07T10:44:06;9.20;;;3.60;;
42332;SDS011;27984;51.476;5.702;2023-04-07T10:49:17;10.00;;;3.90;;
42332;SDS011;27984;51.476;5.702;2023-04-07T10:51:43;13.13;;;3.80;;
42332;SDS011;27984;51.476;5.702;2023-04-07T10:54:15;9.63;;;3.50;;
42332;SDS011;27984;51.476;5.702;2023-04-07T10:59:34;13.07;;;4.00;;
42332;SDS011;27984;51.476;5.702;2023-04-07T11:04:42;12.35;;;3.63;;
42332;SDS011;27984;51.476;5.702;2023-04-07T11:07:09;13.43;;;4.28;;
42332;SDS011;27984;51.476;5.702;2023-04-07T11:09:36;14.25;;;4.82;;
42332;SDS011;27984;51.476;5.702;2023-04-07T11:12:02;10.25;;;4.03;;
42332;SDS011;27984;51.476;5.702;2023-04-07T11:14:31;16.40;;;4.30;;
42332;SDS011;27984;51.476;5.702;2023-04-07T11:16:58;14.43;;;4.82;;
42332;SDS011;27984;51.476;5.702;2023-04-07T11:19:25;12.75;;;4.45;;
42332;SDS011;27984;51.476;5.702;2023-04-07T11:21:51;16.52;;;4.93;;
42332;SDS011;27984;51.476;5.702;2023-04-07T11:24:40;12.93;;;4.22;;
42332;SDS011;27984;51.476;5.702;2023-04-07T11:27:11;40.40;;;8.48;;
42332;SDS011;27984;51.476;5.702;2023-04-07T11:29:37;12.45;;;4.60;;
42332;SDS011;27984;51.476;5.702;2023-04-07T11:32:02;14.07;;;4.57;;
42332;SDS011;27984;51.476;5.702;2023-04-07T11:34:29;12.07;;;4.80;;
42332;SDS011;27984;51.476;5.702;2023-04-07T11:37:17;12.02;;;4.15;;
42332;SDS011;27984;51.476;5.702;2023-04-07T11:39:50;9.40;;;3.70;;
42332;SDS011;27984;51.476;5.702;2023-04-07T11:42:32;8.13;;;3.17;;
42332;SDS011;27984;51.476;5.702;2023-04-07T11:44:59;9.63;;;3.35;;
42332;SDS011;27984;51.476;5.702;2023-04-07T11:47:37;9.13;;;3.25;;
42332;SDS011;27984;51.476;5.702;2023-04-07T11:50:04;5.70;;;3.03;;
42332;SDS011;27984;51.476;5.702;2023-04-07T11:52:43;7.75;;;3.08;;
42332;SDS011;27984;51.476;5.702;2023-04-07T11:55:21;10.65;;;3.30;;
42332;SDS011;27984;51.476;5.702;2023-04-07T11:57:50;10.55;;;3.72;;
42332;SDS011;27984;51.476;5.702;2023-04-07T12:00:16;7.13;;;3.80;;
42332;SDS011;27984;51.476;5.702;2023-04-07T12:02:42;9.15;;;3.78;;
42332;SDS011;27984;51.476;5.702;2023-04-07T12:05:08;13.00;;;3.90;;
42332;SDS011;27984;51.476;5.702;2023-04-07T12:07:34;14.88;;;3.70;;
42332;SDS011;27984;51.476;5.702;2023-04-07T12:10:17;11.23;;;3.33;;
42332;SDS011;27984;51.476;5.702;2023-04-07T12:12:44;8.95;;;3.40;;
42332;SDS011;27984;51.476;5.702;2023-04-07T12:15:11;10.30;;;3.25;;
42332;SDS011;27984;51.476;5.702;2023-04-07T12:17:37;17.60;;;3.63;;
42332;SDS011;27984;51.476;5.702;2023-04-07T12:20:08;10.63;;;3.08;;
42332;SDS011;27984;51.476;5.702;2023-04-07T12:22:34;8.48;;;3.13;;
42332;SDS011;27984;51.476;5.702;2023-04-07T12:24:59;10.85;;;2.97;;
42332;SDS011;27984;51.476;5.702;2023-04-07T12:27:25;8.52;;;3.00;;
42332;SDS011;27984;51.476;5.702;2023-04-07T12:29:51;9.55;;;3.03;;
42332;SDS011;27984;51.476;5.702;2023-04-07T12:32:17;9.38;;;3.00;;
42332;SDS011;27984;51.476;5.702;2023-04-07T12:34:43;8.40;;;2.90;;
42332;SDS011;27984;51.476;5.702;2023-04-07T12:37:08;11.88;;;2.70;;
42332;SDS011;27984;51.476;5.702;2023-04-07T12:39:34;7.80;;;2.47;;
42332;SDS011;27984;51.476;5.702;2023-04-07T12:41:59;10.85;;;2.30;;
42332;SDS011;27984;51.476;5.702;2023-04-07T12:44:25;7.88;;;2.63;;
42332;SDS011;27984;51.476;5.702;2023-04-07T12:46:50;7.80;;;2.45;;
42332;SDS011;27984;51.476;5.702;2023-04-07T12:49:16;12.82;;;2.97;;
42332;SDS011;27984;51.476;5.702;2023-04-07T12:51:42;11.60;;;2.78;;
42332;SDS011;27984;51.476;5.702;2023-04-07T12:54:08;11.68;;;2.80;;
42332;SDS011;27984;51.476;5.702;2023-04-07T12:56:33;8.00;;;2.25;;
42332;SDS011;27984;51.476;5.702;2023-04-07T12:58:59;8.88;;;2.40;;
42332;SDS011;27984;51.476;5.702;2023-04-07T13:01:24;9.70;;;2.50;;
42332;SDS011;27984;51.476;5.702;2023-04-07T13:03:51;8.55;;;2.78;;
42332;SDS011;27984;51.476;5.702;2023-04-07T13:06:16;10.98;;;3.22;;
42332;SDS011;27984;51.476;5.702;2023-04-07T13:08:42;9.23;;;3.42;;
42332;SDS011;27984;51.476;5.702;2023-04-07T13:11:07;9.85;;;3.20;;
42332;SDS011;27984;51.476;5.702;2023-04-07T13:13:33;9.88;;;3.47;;
42332;SDS011;27984;51.476;5.702;2023-04-07T13:16:00;9.93;;;3.30;;
42332;SDS011;27984;51.476;5.702;2023-04-07T13:18:26;6.20;;;3.08;;
42332;SDS011;27984;51.476;5.702;2023-04-07T13:20:52;12.35;;;3.67;;
42332;SDS011;27984;51.476;5.702;2023-04-07T13:23:17;13.07;;;3.67;;
42332;SDS011;27984;51.476;5.702;2023-04-07T13:25:43;12.25;;;3.38;;
42332;SDS011;27984;51.476;5.702;2023-04-07T13:28:08;8.93;;;3.03;;
42332;SDS011;27984;51.476;5.702;2023-04-07T13:30:34;9.80;;;3.33;;
42332;SDS011;27984;51.476;5.702;2023-04-07T13:33:00;14.23;;;4.00;;
42332;SDS011;27984;51.476;5.702;2023-04-07T13:35:25;10.35;;;3.08;;
42332;SDS011;27984;51.476;5.702;2023-04-07T13:37:51;11.10;;;3.28;;
42332;SDS011;27984;51.476;5.702;2023-04-07T13:40:17;8.95;;;3.10;;
42332;SDS011;27984;51.476;5.702;2023-04-07T13:42:42;14.38;;;3.55;;
42332;SDS011;27984;51.476;5.702;2023-04-07T13:45:08;9.05;;;3.00;;
42332;SDS011;27984;51.476;5.702;2023-04-07T13:47:34;9.30;;;2.90;;
42332;SDS011;27984;51.476;5.702;2023-04-07T13:50:00;10.45;;;2.88;;
42332;SDS011;27984;51.476;5.702;2023-04-07T13:52:26;11.45;;;3.33;;
42332;SDS011;27984;51.476;5.702;2023-04-07T13:54:52;13.00;;;3.88;;
42332;SDS011;27984;51.476;5.702;2023-04-07T13:57:18;11.48;;;3.60;;
42332;SDS011;27984;51.476;5.702;2023-04-07T13:59:47;19.48;;;3.88;;
42332;SDS011;27984;51.476;5.702;2023-04-07T14:02:16;10.15;;;3.15;;
42332;SDS011;27984;51.476;5.702;2023-04-07T14:04:42;11.98;;;3.08;;
42332;SDS011;27984;51.476;5.702;2023-04-07T14:07:07;16.33;;;3.83;;
42332;SDS011;27984;51.476;5.702;2023-04-07T14:09:33;6.90;;;3.17;;
42332;SDS011;27984;51.476;5.702;2023-04-07T14:11:59;13.32;;;3.70;;
42332;SDS011;27984;51.476;5.702;2023-04-07T14:14:24;11.38;;;3.47;;
42332;SDS011;27984;51.476;5.702;2023-04-07T14:16:50;13.55;;;3.75;;
42332;SDS011;27984;51.476;5.702;2023-04-07T14:19:19;10.98;;;3.55;;
42332;SDS011;27984;51.476;5.702;2023-04-07T14:21:47;10.18;;;3.58;;
42332;SDS011;27984;51.476;5.702;2023-04-07T14:24:12;11.52;;;3.50;;
42332;SDS011;27984;51.476;5.702;2023-04-07T14:26:38;10.65;;;3.65;;
42332;SDS011;27984;51.476;5.702;2023-04-07T14:29:03;12.38;;;3.75;;
42332;SDS011;27984;51.476;5.702;2023-04-07T14:31:29;18.83;;;4.00;;
42332;SDS011;27984;51.476;5.702;2023-04-07T14:33:54;14.57;;;3.67;;
42332;SDS011;27984;51.476;5.702;2023-04-07T14:36:20;20.40;;;4.03;;
42332;SDS011;27984;51.476;5.702;2023-04-07T14:38:46;14.05;;;3.33;;
42332;SDS011;27984;51.476;5.702;2023-04-07T14:41:11;13.75;;;3.50;;
42332;SDS011;27984;51.476;5.702;2023-04-07T14:43:37;10.70;;;3.90;;
42332;SDS011;27984;51.476;5.702;2023-04-07T14:46:03;15.20;;;4.60;;
42332;SDS011;27984;51.476;5.702;2023-04-07T14:48:29;16.10;;;3.85;;
42332;SDS011;27984;51.476;5.702;2023-04-07T14:50:56;12.43;;;3.83;;